Aktuální počasí v Česku a ve světě - METAR

Seznam meteostanic umístěných nejčasteji na letišti v ČR a ve světě

Vyhledat místa podle abecedy:
A B C D E F G H I J K L M N O P Q R S T U V W X Y Z

Filtrovat:

ID stanice:
a/nebo
Název místa (fulltext):
 
Místo (ID)Naposledy načteno 
Náměšť nad Oslavou (Namest n/O) 03.03.2024 09:00 UTC Zobrazit data
Místo: Náměšť nad Oslavou
Teplota: 7 °C (pocitová: 0.2 °C)
Vítr: 6 m/s z(e) 130°
Počasí: zataženo
Dohlednost: 15 km
Zákl. oblačnosti: 7/8 210 m;8/8 420 m
Vlhkost: 93%
N'Djamena (FTTJ) 03.03.2024 09:00 UTC Zobrazit METAR
FTTJ 030900Z 04012KT 3500 DU NSC 34/M04 Q1011 NOSIG
Nairobi (HKJK) 03.03.2024 09:00 UTC Zobrazit METAR
HKJK 030900Z 05007KT 350V120 9999 SCT025 26/14 Q1022 NOSIG
Nantes/ Atlantique (LFRS) 03.03.2024 09:00 UTC Zobrazit METAR
LFRS 030900Z AUTO 32004KT 280V350 CAVOK 05/03 Q1004 NOSIG
Nassau (MYNN) 03.03.2024 09:00 UTC Zobrazit METAR
MYNN 030900Z 12003KT 9999 FEW035 BKN200 20/19 A3010
Nauru (ANAU) Zatím nenačteno  
Nausori (NFNA) 03.03.2024 09:00 UTC Zobrazit METAR
NFNA 030900Z 14007KT 9999 -SHRA SCT018 BKN045 28/27 Q1015
New York (KNYC) 03.03.2024 08:49 UTC Zobrazit METAR
KNYC 030849Z AUTO 30005KT 10SM OVC014 09/M01 A3011 RMK AO2 $
Newcastle (EGNT) 03.03.2024 08:50 UTC Zobrazit METAR
EGNT 030850Z 18003KT 7000 FEW020 02/01 Q0999
Niamey (DRRN) 03.03.2024 09:00 UTC Zobrazit METAR
DRRN 030900Z 13012KT 4800 DU NSC 34/M06 Q1012 BECMG 6000
Nice/ Cote D'Azur (LFMN) 03.03.2024 09:00 UTC Zobrazit METAR
LFMN 030900Z 05018KT 8000 -RA BKN046 BKN056 12/08 Q1002 TEMPO 4000 RA FEW025CB
Niue Island (NIUE) 03.03.2024 09:00 UTC Zobrazit METAR
NIUE 030900Z AUTO 11009KT 9999 BKN026/// 27/23 Q1016
Nizhny Novgorod (UWGG) 13.10.2017 15:00 UTC Zobrazit METAR
UWGG 131500Z 9000 NSC 10/07 Q1006 R18R/290050 NOSIG RMK QFE747
North Caicos I. (MBNC) Zatím nenačteno  
Nouakchott (GQNN) 23.06.2016 11:00 UTC Zobrazit METAR
GQNN 231100Z 23009KT 180V250 7000 BKN010 25/18 Q1013 NOSIG
Noumea (NWWM) Zatím nenačteno  
Nuku'alofa (NFTF) 03.03.2024 09:00 UTC Zobrazit METAR
NFTF 030900Z 12006KT 9999 FEW015 SCT280 27/26 Q1018
Reklama

Krásné fotografie přírody - (nejen) tapety na pozadí do počítače

Článek
Fotogalerie jarních květin
13. dubna 2023 12:19
Článek
Fotografie slunečné zimní krajiny
7. prosince 2022 17:13
Článek
Obrázky na téma slunečno
25. srpna 2022 05:03
Článek
Obrázky květin
5. června 2022 12:12

Vyhledat
Přidejte si Počasí Slunečno na svůj Facebook
Facebook Počasí Slunečno.cz
Aplikace pro Windows 10/11 nebo chytré mobilní telefony
Stáhněte si aplikaci Slunečno.cz na Microsoft Store Stáhněte si aplikaci Slunečno.cz na Google Play